sensor_id;sensor_type;location;lat;lon;timestamp;temperature;humidity
21801;DHT22;11062;51.164;16.924;2022-09-24T00:01:59;31.00;32.70
21801;DHT22;11062;51.164;16.924;2022-09-24T00:04:29;31.00;32.90
21801;DHT22;11062;51.164;16.924;2022-09-24T00:06:56;30.90;33.00
21801;DHT22;11062;51.164;16.924;2022-09-24T00:09:23;30.90;33.10
21801;DHT22;11062;51.164;16.924;2022-09-24T00:11:49;30.90;33.10
21801;DHT22;11062;51.164;16.924;2022-09-24T00:14:18;30.90;33.00
21801;DHT22;11062;51.164;16.924;2022-09-24T00:16:47;30.90;32.80
21801;DHT22;11062;51.164;16.924;2022-09-24T00:19:15;30.90;32.80
21801;DHT22;11062;51.164;16.924;2022-09-24T00:21:41;30.90;32.50
21801;DHT22;11062;51.164;16.924;2022-09-24T00:24:15;30.90;32.60
21801;DHT22;11062;51.164;16.924;2022-09-24T00:27:04;30.90;32.70
21801;DHT22;11062;51.164;16.924;2022-09-24T00:29:34;30.90;32.80
21801;DHT22;11062;51.164;16.924;2022-09-24T00:32:01;30.90;32.90
21801;DHT22;11062;51.164;16.924;2022-09-24T00:34:33;30.90;32.90
21801;DHT22;11062;51.164;16.924;2022-09-24T00:37:04;30.70;32.70
21801;DHT22;11062;51.164;16.924;2022-09-24T00:39:31;30.80;32.70
21801;DHT22;11062;51.164;16.924;2022-09-24T00:42:00;30.90;33.10
21801;DHT22;11062;51.164;16.924;2022-09-24T00:50:02;30.90;32.60
21801;DHT22;11062;51.164;16.924;2022-09-24T00:52:32;30.80;32.60
21801;DHT22;11062;51.164;16.924;2022-09-24T00:55:01;30.80;32.60
21801;DHT22;11062;51.164;16.924;2022-09-24T00:57:28;30.80;32.70
21801;DHT22;11062;51.164;16.924;2022-09-24T00:59:55;30.90;32.70
21801;DHT22;11062;51.164;16.924;2022-09-24T01:02:21;30.80;32.50
21801;DHT22;11062;51.164;16.924;2022-09-24T01:04:48;30.80;32.40
21801;DHT22;11062;51.164;16.924;2022-09-24T01:07:15;30.80;32.60
21801;DHT22;11062;51.164;16.924;2022-09-24T01:09:43;30.80;32.70
21801;DHT22;11062;51.164;16.924;2022-09-24T01:12:48;30.80;32.70
21801;DHT22;11062;51.164;16.924;2022-09-24T01:15:14;30.90;32.50
21801;DHT22;11062;51.164;16.924;2022-09-24T01:18:22;30.80;32.60
21801;DHT22;11062;51.164;16.924;2022-09-24T01:21:08;30.80;32.30
21801;DHT22;11062;51.164;16.924;2022-09-24T01:32:40;30.80;33.00
21801;DHT22;11062;51.164;16.924;2022-09-24T01:35:25;30.70;32.80
21801;DHT22;11062;51.164;16.924;2022-09-24T01:38:03;30.80;32.80
21801;DHT22;11062;51.164;16.924;2022-09-24T01:40:31;30.80;32.70
21801;DHT22;11062;51.164;16.924;2022-09-24T01:43:01;30.50;32.40
21801;DHT22;11062;51.164;16.924;2022-09-24T01:45:29;30.80;32.90
21801;DHT22;11062;51.164;16.924;2022-09-24T01:48:01;30.70;32.80
21801;DHT22;11062;51.164;16.924;2022-09-24T01:50:41;30.70;33.20
21801;DHT22;11062;51.164;16.924;2022-09-24T01:53:50;30.50;33.00
21801;DHT22;11062;51.164;16.924;2022-09-24T01:56:47;30.60;32.80
21801;DHT22;11062;51.164;16.924;2022-09-24T01:59:27;30.80;32.80
21801;DHT22;11062;51.164;16.924;2022-09-24T02:02:16;30.80;32.60
21801;DHT22;11062;51.164;16.924;2022-09-24T02:08:13;30.70;32.40
21801;DHT22;11062;51.164;16.924;2022-09-24T02:14:11;30.70;32.70
21801;DHT22;11062;51.164;16.924;2022-09-24T02:16:43;30.70;32.80
21801;DHT22;11062;51.164;16.924;2022-09-24T05:56:34;32.10;34.70
21801;DHT22;11062;51.164;16.924;2022-09-24T05:59:01;32.10;34.90
21801;DHT22;11062;51.164;16.924;2022-09-24T06:01:29;32.20;34.90
21801;DHT22;11062;51.164;16.924;2022-09-24T06:03:56;32.20;35.00
21801;DHT22;11062;51.164;16.924;2022-09-24T06:06:23;32.30;35.00
21801;DHT22;11062;51.164;16.924;2022-09-24T06:08:58;32.30;35.10
21801;DHT22;11062;51.164;16.924;2022-09-24T06:11:24;32.30;35.00
21801;DHT22;11062;51.164;16.924;2022-09-24T06:13:58;32.30;35.10
21801;DHT22;11062;51.164;16.924;2022-09-24T06:16:24;32.40;35.20
21801;DHT22;11062;51.164;16.924;2022-09-24T06:18:52;32.50;35.30
21801;DHT22;11062;51.164;16.924;2022-09-24T06:21:18;32.50;35.30
21801;DHT22;11062;51.164;16.924;2022-09-24T06:23:44;32.60;35.30
21801;DHT22;11062;51.164;16.924;2022-09-24T06:26:12;32.60;35.40
21801;DHT22;11062;51.164;16.924;2022-09-24T06:28:39;32.70;35.50
21801;DHT22;11062;51.164;16.924;2022-09-24T06:31:08;32.70;35.60
21801;DHT22;11062;51.164;16.924;2022-09-24T06:33:36;32.80;35.60
21801;DHT22;11062;51.164;16.924;2022-09-24T06:36:03;32.90;35.80
21801;DHT22;11062;51.164;16.924;2022-09-24T06:38:35;32.90;35.80
21801;DHT22;11062;51.164;16.924;2022-09-24T06:41:04;33.00;35.90
21801;DHT22;11062;51.164;16.924;2022-09-24T06:43:36;33.10;35.90
21801;DHT22;11062;51.164;16.924;2022-09-24T06:46:03;33.10;36.00
21801;DHT22;11062;51.164;16.924;2022-09-24T06:48:30;33.20;36.10
21801;DHT22;11062;51.164;16.924;2022-09-24T06:50:56;33.40;36.20
21801;DHT22;11062;51.164;16.924;2022-09-24T06:53:28;33.40;36.10
21801;DHT22;11062;51.164;16.924;2022-09-24T06:55:58;33.50;36.50
21801;DHT22;11062;51.164;16.924;2022-09-24T06:58:24;33.60;36.40
21801;DHT22;11062;51.164;16.924;2022-09-24T08:05:08;35.00;34.80
21801;DHT22;11062;51.164;16.924;2022-09-24T08:08:56;35.10;34.00
21801;DHT22;11062;51.164;16.924;2022-09-24T08:12:31;35.40;34.90
21801;DHT22;11062;51.164;16.924;2022-09-24T08:16:05;35.50;34.90
21801;DHT22;11062;51.164;16.924;2022-09-24T08:19:39;35.80;34.50
21801;DHT22;11062;51.164;16.924;2022-09-24T15:20:49;41.60;28.10
21801;DHT22;11062;51.164;16.924;2022-09-24T15:24:18;41.70;26.60
21801;DHT22;11062;51.164;16.924;2022-09-24T15:27:42;41.90;26.00
21801;DHT22;11062;51.164;16.924;2022-09-24T15:31:14;42.00;25.50
21801;DHT22;11062;51.164;16.924;2022-09-24T16:06:15;41.10;29.70
21801;DHT22;11062;51.164;16.924;2022-09-24T16:09:19;40.90;30.00
21801;DHT22;11062;51.164;16.924;2022-09-24T16:12:04;40.70;30.60
21801;DHT22;11062;51.164;16.924;2022-09-24T16:18:38;40.30;31.10
21801;DHT22;11062;51.164;16.924;2022-09-24T16:21:30;40.10;31.20
21801;DHT22;11062;51.164;16.924;2022-09-24T16:24:31;39.90;31.50
21801;DHT22;11062;51.164;16.924;2022-09-24T16:45:36;38.80;32.80
21801;DHT22;11062;51.164;16.924;2022-09-24T16:49:11;38.70;33.00
21801;DHT22;11062;51.164;16.924;2022-09-24T16:52:40;38.50;33.30
21801;DHT22;11062;51.164;16.924;2022-09-24T16:55:56;38.30;33.20
21801;DHT22;11062;51.164;16.924;2022-09-24T16:59:11;38.10;33.20
21801;DHT22;11062;51.164;16.924;2022-09-24T17:01:49;37.90;33.40
21801;DHT22;11062;51.164;16.924;2022-09-24T17:04:46;37.90;33.50
21801;DHT22;11062;51.164;16.924;2022-09-24T17:07:43;37.60;33.60
21801;DHT22;11062;51.164;16.924;2022-09-24T17:10:49;37.50;33.60
21801;DHT22;11062;51.164;16.924;2022-09-24T17:16:32;37.20;34.00
21801;DHT22;11062;51.164;16.924;2022-09-24T17:23:19;37.10;33.80
21801;DHT22;11062;51.164;16.924;2022-09-24T17:26:38;36.90;34.20
21801;DHT22;11062;51.164;16.924;2022-09-24T17:32:16;36.70;34.50
21801;DHT22;11062;51.164;16.924;2022-09-24T17:35:04;36.60;34.50
21801;DHT22;11062;51.164;16.924;2022-09-24T17:37:32;36.60;34.50
21801;DHT22;11062;51.164;16.924;2022-09-24T17:40:03;36.40;34.50
21801;DHT22;11062;51.164;16.924;2022-09-24T17:42:33;36.40;34.60
21801;DHT22;11062;51.164;16.924;2022-09-24T17:45:00;36.30;34.70
21801;DHT22;11062;51.164;16.924;2022-09-24T17:47:34;36.20;34.70
21801;DHT22;11062;51.164;16.924;2022-09-24T17:50:20;36.20;34.70
21801;DHT22;11062;51.164;16.924;2022-09-24T17:52:48;36.10;34.90
21801;DHT22;11062;51.164;16.924;2022-09-24T17:55:18;36.00;34.80
21801;DHT22;11062;51.164;16.924;2022-09-24T17:57:48;36.00;34.80
21801;DHT22;11062;51.164;16.924;2022-09-24T18:00:15;35.90;34.80
21801;DHT22;11062;51.164;16.924;2022-09-24T18:02:45;35.80;34.70
21801;DHT22;11062;51.164;16.924;2022-09-24T18:05:38;35.80;35.00
21801;DHT22;11062;51.164;16.924;2022-09-24T18:08:09;35.70;35.00
21801;DHT22;11062;51.164;16.924;2022-09-24T18:10:40;35.70;35.00
21801;DHT22;11062;51.164;16.924;2022-09-24T18:13:12;35.50;34.80
21801;DHT22;11062;51.164;16.924;2022-09-24T18:15:43;35.50;34.70
21801;DHT22;11062;51.164;16.924;2022-09-24T18:18:13;35.40;34.60
21801;DHT22;11062;51.164;16.924;2022-09-24T18:20:41;35.40;34.80
21801;DHT22;11062;51.164;16.924;2022-09-24T18:23:27;35.30;34.70
21801;DHT22;11062;51.164;16.924;2022-09-24T18:25:59;35.30;34.90
21801;DHT22;11062;51.164;16.924;2022-09-24T18:28:39;35.20;34.70
21801;DHT22;11062;51.164;16.924;2022-09-24T18:31:10;35.20;34.40
21801;DHT22;11062;51.164;16.924;2022-09-24T18:33:40;35.20;34.40
21801;DHT22;11062;51.164;16.924;2022-09-24T18:36:10;35.10;34.60
21801;DHT22;11062;51.164;16.924;2022-09-24T18:38:40;35.00;34.70
21801;DHT22;11062;51.164;16.924;2022-09-24T18:43:46;35.00;34.50
21801;DHT22;11062;51.164;16.924;2022-09-24T18:46:17;34.90;34.30
21801;DHT22;11062;51.164;16.924;2022-09-24T18:48:48;34.80;34.20
21801;DHT22;11062;51.164;16.924;2022-09-24T18:51:32;34.80;34.10
21801;DHT22;11062;51.164;16.924;2022-09-24T18:54:01;34.80;34.40
21801;DHT22;11062;51.164;16.924;2022-09-24T18:56:50;34.60;34.50
21801;DHT22;11062;51.164;16.924;2022-09-24T18:59:20;34.70;34.60
21801;DHT22;11062;51.164;16.924;2022-09-24T19:01:51;34.60;34.60
21801;DHT22;11062;51.164;16.924;2022-09-24T19:04:19;34.50;34.60
21801;DHT22;11062;51.164;16.924;2022-09-24T19:07:08;34.50;34.60
21801;DHT22;11062;51.164;16.924;2022-09-24T19:09:42;34.50;34.40
21801;DHT22;11062;51.164;16.924;2022-09-24T19:12:09;34.40;34.40
21801;DHT22;11062;51.164;16.924;2022-09-24T19:14:37;34.40;34.50
21801;DHT22;11062;51.164;16.924;2022-09-24T19:17:07;34.30;34.30
21801;DHT22;11062;51.164;16.924;2022-09-24T19:19:41;34.30;34.20
21801;DHT22;11062;51.164;16.924;2022-09-24T19:22:29;34.30;34.30
21801;DHT22;11062;51.164;16.924;2022-09-24T19:24:58;34.20;34.30
21801;DHT22;11062;51.164;16.924;2022-09-24T19:27:29;34.20;34.30
21801;DHT22;11062;51.164;16.924;2022-09-24T19:29:59;34.20;34.30
21801;DHT22;11062;51.164;16.924;2022-09-24T19:32:32;34.10;34.40
21801;DHT22;11062;51.164;16.924;2022-09-24T19:35:00;34.10;34.40
21801;DHT22;11062;51.164;16.924;2022-09-24T19:40:27;34.00;34.60
21801;DHT22;11062;51.164;16.924;2022-09-24T19:43:08;34.00;34.50
21801;DHT22;11062;51.164;16.924;2022-09-24T19:45:36;34.00;34.30
21801;DHT22;11062;51.164;16.924;2022-09-24T19:48:06;33.90;34.30
21801;DHT22;11062;51.164;16.924;2022-09-24T19:50:37;33.90;34.00
21801;DHT22;11062;51.164;16.924;2022-09-24T19:53:24;33.90;34.10
21801;DHT22;11062;51.164;16.924;2022-09-24T19:55:52;33.90;33.80
21801;DHT22;11062;51.164;16.924;2022-09-24T19:58:22;33.80;33.70
21801;DHT22;11062;51.164;16.924;2022-09-24T20:03:46;33.80;33.90
21801;DHT22;11062;51.164;16.924;2022-09-24T20:06:15;33.70;34.00
21801;DHT22;11062;51.164;16.924;2022-09-24T20:11:26;33.80;34.00
21801;DHT22;11062;51.164;16.924;2022-09-24T20:13:55;33.70;34.00
21801;DHT22;11062;51.164;16.924;2022-09-24T20:19:24;33.60;34.00
21801;DHT22;11062;51.164;16.924;2022-09-24T20:25:35;33.60;33.70
21801;DHT22;11062;51.164;16.924;2022-09-24T20:28:56;33.60;33.60
21801;DHT22;11062;51.164;16.924;2022-09-24T20:31:58;33.60;33.70
21801;DHT22;11062;51.164;16.924;2022-09-24T20:35:25;33.60;33.80
21801;DHT22;11062;51.164;16.924;2022-09-24T20:38:42;33.50;33.90
21801;DHT22;11062;51.164;16.924;2022-09-24T20:41:20;33.50;34.10
21801;DHT22;11062;51.164;16.924;2022-09-24T20:44:12;33.50;34.10
21801;DHT22;11062;51.164;16.924;2022-09-24T20:47:31;33.40;34.20
21801;DHT22;11062;51.164;16.924;2022-09-24T20:50:51;33.50;34.10
21801;DHT22;11062;51.164;16.924;2022-09-24T20:53:40;33.50;34.00
21801;DHT22;11062;51.164;16.924;2022-09-24T20:59:44;33.40;33.40
21801;DHT22;11062;51.164;16.924;2022-09-24T21:07:36;33.40;33.70
21801;DHT22;11062;51.164;16.924;2022-09-24T21:10:29;33.30;33.70
21801;DHT22;11062;51.164;16.924;2022-09-24T21:13:30;33.30;33.50
21801;DHT22;11062;51.164;16.924;2022-09-24T21:16:48;33.30;33.40
21801;DHT22;11062;51.164;16.924;2022-09-24T21:19:31;33.20;33.60
21801;DHT22;11062;51.164;16.924;2022-09-24T21:22:52;33.20;33.70
21801;DHT22;11062;51.164;16.924;2022-09-24T21:25:47;33.10;33.60
21801;DHT22;11062;51.164;16.924;2022-09-24T21:28:49;33.10;33.90
21801;DHT22;11062;51.164;16.924;2022-09-24T21:31:50;33.10;33.70
21801;DHT22;11062;51.164;16.924;2022-09-24T21:34:57;33.10;33.60
21801;DHT22;11062;51.164;16.924;2022-09-24T21:41:25;33.00;33.10
21801;DHT22;11062;51.164;16.924;2022-09-24T21:44:49;33.00;33.20
21801;DHT22;11062;51.164;16.924;2022-09-24T21:48:19;33.00;33.20
21801;DHT22;11062;51.164;16.924;2022-09-24T21:51:38;32.90;33.20
21801;DHT22;11062;51.164;16.924;2022-09-24T21:54:47;32.90;33.30
21801;DHT22;11062;51.164;16.924;2022-09-24T21:58:01;32.90;33.20
21801;DHT22;11062;51.164;16.924;2022-09-24T22:01:11;32.90;33.20
21801;DHT22;11062;51.164;16.924;2022-09-24T22:04:03;32.90;33.30
21801;DHT22;11062;51.164;16.924;2022-09-24T22:06:39;32.80;33.20
21801;DHT22;11062;51.164;16.924;2022-09-24T22:09:16;32.80;33.10
21801;DHT22;11062;51.164;16.924;2022-09-24T22:11:44;32.80;33.10
21801;DHT22;11062;51.164;16.924;2022-09-24T22:14:11;32.70;33.20
21801;DHT22;11062;51.164;16.924;2022-09-24T22:16:38;32.70;33.40
21801;DHT22;11062;51.164;16.924;2022-09-24T22:19:12;32.70;33.70
21801;DHT22;11062;51.164;16.924;2022-09-24T22:21:41;32.70;33.70
21801;DHT22;11062;51.164;16.924;2022-09-24T22:24:09;32.70;34.00
21801;DHT22;11062;51.164;16.924;2022-09-24T22:26:38;32.70;33.90
21801;DHT22;11062;51.164;16.924;2022-09-24T22:29:08;32.70;33.70
21801;DHT22;11062;51.164;16.924;2022-09-24T22:31:36;32.70;33.80
21801;DHT22;11062;51.164;16.924;2022-09-24T22:34:02;32.70;33.70
21801;DHT22;11062;51.164;16.924;2022-09-24T22:36:48;32.70;33.70
21801;DHT22;11062;51.164;16.924;2022-09-24T22:39:14;32.70;34.20
21801;DHT22;11062;51.164;16.924;2022-09-24T22:41:46;32.60;34.30
21801;DHT22;11062;51.164;16.924;2022-09-24T22:44:17;32.70;33.80
21801;DHT22;11062;51.164;16.924;2022-09-24T22:46:45;32.70;34.00
21801;DHT22;11062;51.164;16.924;2022-09-24T22:49:20;32.60;33.50
21801;DHT22;11062;51.164;16.924;2022-09-24T22:51:48;32.60;33.70
21801;DHT22;11062;51.164;16.924;2022-09-24T22:54:17;32.70;33.70
21801;DHT22;11062;51.164;16.924;2022-09-24T22:57:08;32.70;33.40
21801;DHT22;11062;51.164;16.924;2022-09-24T23:03:54;32.70;33.30
21801;DHT22;11062;51.164;16.924;2022-09-24T23:06:55;32.70;33.30
21801;DHT22;11062;51.164;16.924;2022-09-24T23:10:26;32.70;33.00
21801;DHT22;11062;51.164;16.924;2022-09-24T23:13:51;32.70;33.20
21801;DHT22;11062;51.164;16.924;2022-09-24T23:17:17;32.60;33.40
21801;DHT22;11062;51.164;16.924;2022-09-24T23:19:56;32.60;33.30
21801;DHT22;11062;51.164;16.924;2022-09-24T23:22:39;32.70;33.10
21801;DHT22;11062;51.164;16.924;2022-09-24T23:29:40;32.60;33.30
21801;DHT22;11062;51.164;16.924;2022-09-24T23:32:54;32.60;33.40
21801;DHT22;11062;51.164;16.924;2022-09-24T23:38:03;32.50;33.40
21801;DHT22;11062;51.164;16.924;2022-09-24T23:41:35;32.50;33.40
21801;DHT22;11062;51.164;16.924;2022-09-24T23:44:15;32.50;33.20
21801;DHT22;11062;51.164;16.924;2022-09-24T23:47:12;32.50;33.30
21801;DHT22;11062;51.164;16.924;2022-09-24T23:49:46;32.60;33.30
21801;DHT22;11062;51.164;16.924;2022-09-24T23:52:23;32.50;33.50
21801;DHT22;11062;51.164;16.924;2022-09-24T23:55:29;32.60;33.70
21801;DHT22;11062;51.164;16.924;2022-09-24T23:58:54;32.50;34.00
